sensor_id;sensor_type;location;lat;lon;timestamp;P1;durP1;ratioP1;P2;durP2;ratioP2
54157;SDS011;40065;49.894;10.358;2023-04-25T00:01:12;10.75;;;6.85;;
54157;SDS011;40065;49.894;10.358;2023-04-25T00:06:14;10.10;;;6.75;;
54157;SDS011;40065;49.894;10.358;2023-04-25T00:11:16;9.27;;;5.90;;
54157;SDS011;40065;49.894;10.358;2023-04-25T00:16:18;8.90;;;5.80;;
54157;SDS011;40065;49.894;10.358;2023-04-25T00:21:20;5.57;;;3.90;;
54157;SDS011;40065;49.894;10.358;2023-04-25T00:26:22;7.85;;;5.10;;
54157;SDS011;40065;49.894;10.358;2023-04-25T00:31:24;8.02;;;5.80;;
54157;SDS011;40065;49.894;10.358;2023-04-25T00:36:26;8.55;;;5.35;;
54157;SDS011;40065;49.894;10.358;2023-04-25T00:41:28;7.10;;;5.25;;
54157;SDS011;40065;49.894;10.358;2023-04-25T00:46:31;9.27;;;5.63;;
54157;SDS011;40065;49.894;10.358;2023-04-25T00:51:33;8.63;;;5.45;;
54157;SDS011;40065;49.894;10.358;2023-04-25T00:56:36;6.70;;;5.07;;
54157;SDS011;40065;49.894;10.358;2023-04-25T01:01:38;8.48;;;5.78;;
54157;SDS011;40065;49.894;10.358;2023-04-25T01:06:40;9.10;;;5.13;;
54157;SDS011;40065;49.894;10.358;2023-04-25T01:11:42;7.05;;;5.35;;
54157;SDS011;40065;49.894;10.358;2023-04-25T01:16:44;7.38;;;5.00;;
54157;SDS011;40065;49.894;10.358;2023-04-25T01:21:46;9.23;;;5.13;;
54157;SDS011;40065;49.894;10.358;2023-04-25T01:26:48;7.63;;;5.38;;
54157;SDS011;40065;49.894;10.358;2023-04-25T01:31:55;7.28;;;5.22;;
54157;SDS011;40065;49.894;10.358;2023-04-25T01:37:00;7.70;;;5.20;;
54157;SDS011;40065;49.894;10.358;2023-04-25T01:42:03;8.70;;;5.97;;
54157;SDS011;40065;49.894;10.358;2023-04-25T01:47:05;8.65;;;5.93;;
54157;SDS011;40065;49.894;10.358;2023-04-25T01:52:07;8.68;;;6.30;;
54157;SDS011;40065;49.894;10.358;2023-04-25T01:57:10;10.18;;;6.15;;
54157;SDS011;40065;49.894;10.358;2023-04-25T02:02:15;8.50;;;6.18;;
54157;SDS011;40065;49.894;10.358;2023-04-25T02:07:17;8.68;;;5.75;;
54157;SDS011;40065;49.894;10.358;2023-04-25T02:12:26;10.32;;;6.45;;
54157;SDS011;40065;49.894;10.358;2023-04-25T02:17:54;10.52;;;6.50;;
54157;SDS011;40065;49.894;10.358;2023-04-25T02:22:57;10.65;;;6.85;;
54157;SDS011;40065;49.894;10.358;2023-04-25T02:27:59;9.88;;;6.63;;
54157;SDS011;40065;49.894;10.358;2023-04-25T02:33:00;7.82;;;5.32;;
54157;SDS011;40065;49.894;10.358;2023-04-25T02:38:03;7.28;;;4.80;;
54157;SDS011;40065;49.894;10.358;2023-04-25T02:43:07;8.43;;;4.80;;
54157;SDS011;40065;49.894;10.358;2023-04-25T02:48:09;8.07;;;5.40;;
54157;SDS011;40065;49.894;10.358;2023-04-25T02:53:11;7.45;;;4.75;;
54157;SDS011;40065;49.894;10.358;2023-04-25T02:58:19;8.30;;;5.75;;
54157;SDS011;40065;49.894;10.358;2023-04-25T03:03:24;10.10;;;6.53;;
54157;SDS011;40065;49.894;10.358;2023-04-25T03:08:26;9.25;;;6.45;;
54157;SDS011;40065;49.894;10.358;2023-04-25T03:13:34;11.70;;;6.65;;
54157;SDS011;40065;49.894;10.358;2023-04-25T03:18:36;11.25;;;7.22;;
54157;SDS011;40065;49.894;10.358;2023-04-25T03:23:37;10.93;;;7.60;;
54157;SDS011;40065;49.894;10.358;2023-04-25T03:28:41;11.82;;;7.43;;
54157;SDS011;40065;49.894;10.358;2023-04-25T03:33:43;12.10;;;7.40;;
54157;SDS011;40065;49.894;10.358;2023-04-25T03:38:45;11.85;;;7.90;;
54157;SDS011;40065;49.894;10.358;2023-04-25T03:43:49;10.45;;;6.35;;
54157;SDS011;40065;49.894;10.358;2023-04-25T03:48:51;13.40;;;7.53;;
54157;SDS011;40065;49.894;10.358;2023-04-25T03:53:58;9.82;;;6.60;;
54157;SDS011;40065;49.894;10.358;2023-04-25T03:59:09;10.77;;;7.63;;
54157;SDS011;40065;49.894;10.358;2023-04-25T04:04:11;11.15;;;7.18;;
54157;SDS011;40065;49.894;10.358;2023-04-25T04:09:13;10.73;;;6.72;;
54157;SDS011;40065;49.894;10.358;2023-04-25T04:14:17;10.50;;;7.38;;
54157;SDS011;40065;49.894;10.358;2023-04-25T04:19:21;9.23;;;6.37;;
54157;SDS011;40065;49.894;10.358;2023-04-25T04:24:37;11.88;;;6.90;;
54157;SDS011;40065;49.894;10.358;2023-04-25T04:29:41;11.53;;;7.50;;
54157;SDS011;40065;49.894;10.358;2023-04-25T04:34:57;8.88;;;5.72;;
54157;SDS011;40065;49.894;10.358;2023-04-25T04:39:59;11.27;;;7.35;;
54157;SDS011;40065;49.894;10.358;2023-04-25T04:45:17;9.50;;;6.95;;
54157;SDS011;40065;49.894;10.358;2023-04-25T04:50:39;9.18;;;5.80;;
54157;SDS011;40065;49.894;10.358;2023-04-25T04:55:52;10.20;;;6.63;;
54157;SDS011;40065;49.894;10.358;2023-04-25T05:01:20;9.15;;;6.20;;
54157;SDS011;40065;49.894;10.358;2023-04-25T05:06:48;11.40;;;7.63;;
54157;SDS011;40065;49.894;10.358;2023-04-25T05:12:15;11.27;;;7.30;;
54157;SDS011;40065;49.894;10.358;2023-04-25T05:17:26;11.68;;;7.47;;
54157;SDS011;40065;49.894;10.358;2023-04-25T05:22:33;8.10;;;5.63;;
54157;SDS011;40065;49.894;10.358;2023-04-25T05:27:46;10.48;;;7.20;;
54157;SDS011;40065;49.894;10.358;2023-04-25T05:33:07;13.73;;;8.27;;
54157;SDS011;40065;49.894;10.358;2023-04-25T05:38:09;11.05;;;7.45;;
54157;SDS011;40065;49.894;10.358;2023-04-25T05:43:42;10.73;;;7.93;;
54157;SDS011;40065;49.894;10.358;2023-04-25T05:49:08;15.15;;;8.35;;
54157;SDS011;40065;49.894;10.358;2023-04-25T05:54:17;14.20;;;9.43;;
54157;SDS011;40065;49.894;10.358;2023-04-25T05:59:19;13.32;;;8.48;;
54157;SDS011;40065;49.894;10.358;2023-04-25T06:04:21;13.68;;;8.68;;
54157;SDS011;40065;49.894;10.358;2023-04-25T06:09:24;8.38;;;6.30;;
54157;SDS011;40065;49.894;10.358;2023-04-25T06:14:27;8.67;;;5.93;;
54157;SDS011;40065;49.894;10.358;2023-04-25T06:19:30;6.35;;;4.97;;
54157;SDS011;40065;49.894;10.358;2023-04-25T06:24:32;11.07;;;6.85;;
54157;SDS011;40065;49.894;10.358;2023-04-25T06:29:36;9.52;;;7.00;;
54157;SDS011;40065;49.894;10.358;2023-04-25T06:34:38;10.57;;;6.53;;
54157;SDS011;40065;49.894;10.358;2023-04-25T06:39:40;10.00;;;5.65;;
54157;SDS011;40065;49.894;10.358;2023-04-25T06:44:42;7.45;;;4.72;;
54157;SDS011;40065;49.894;10.358;2023-04-25T06:49:46;5.50;;;3.97;;
54157;SDS011;40065;49.894;10.358;2023-04-25T06:54:48;7.32;;;3.40;;
54157;SDS011;40065;49.894;10.358;2023-04-25T07:00:05;7.47;;;2.65;;
54157;SDS011;40065;49.894;10.358;2023-04-25T07:05:11;6.68;;;2.97;;
54157;SDS011;40065;49.894;10.358;2023-04-25T07:10:13;4.20;;;2.58;;
54157;SDS011;40065;49.894;10.358;2023-04-25T07:15:15;7.03;;;3.00;;
54157;SDS011;40065;49.894;10.358;2023-04-25T07:20:20;6.78;;;3.13;;
54157;SDS011;40065;49.894;10.358;2023-04-25T07:25:22;8.45;;;3.20;;
54157;SDS011;40065;49.894;10.358;2023-04-25T07:30:24;5.72;;;3.15;;
54157;SDS011;40065;49.894;10.358;2023-04-25T07:35:26;7.75;;;2.67;;
54157;SDS011;40065;49.894;10.358;2023-04-25T07:40:28;6.00;;;2.85;;
54157;SDS011;40065;49.894;10.358;2023-04-25T07:45:37;6.03;;;2.30;;
54157;SDS011;40065;49.894;10.358;2023-04-25T07:50:39;6.00;;;2.35;;
54157;SDS011;40065;49.894;10.358;2023-04-25T07:55:41;5.57;;;2.20;;
54157;SDS011;40065;49.894;10.358;2023-04-25T08:00:49;5.22;;;2.40;;
54157;SDS011;40065;49.894;10.358;2023-04-25T08:06:06;5.40;;;2.28;;
54157;SDS011;40065;49.894;10.358;2023-04-25T08:11:17;5.10;;;2.30;;
54157;SDS011;40065;49.894;10.358;2023-04-25T08:16:19;6.03;;;2.38;;
54157;SDS011;40065;49.894;10.358;2023-04-25T08:21:21;4.68;;;2.28;;
54157;SDS011;40065;49.894;10.358;2023-04-25T08:26:27;6.32;;;2.15;;
54157;SDS011;40065;49.894;10.358;2023-04-25T08:31:30;4.63;;;1.92;;
54157;SDS011;40065;49.894;10.358;2023-04-25T08:36:35;3.55;;;1.35;;
54157;SDS011;40065;49.894;10.358;2023-04-25T08:42:03;4.57;;;1.92;;
54157;SDS011;40065;49.894;10.358;2023-04-25T08:47:11;4.03;;;1.50;;
54157;SDS011;40065;49.894;10.358;2023-04-25T08:52:20;4.32;;;1.83;;
54157;SDS011;40065;49.894;10.358;2023-04-25T08:57:25;3.63;;;1.50;;
54157;SDS011;40065;49.894;10.358;2023-04-25T09:02:28;2.47;;;1.30;;
54157;SDS011;40065;49.894;10.358;2023-04-25T09:07:31;4.95;;;1.73;;
54157;SDS011;40065;49.894;10.358;2023-04-25T09:12:34;2.42;;;1.27;;
54157;SDS011;40065;49.894;10.358;2023-04-25T09:17:41;2.97;;;1.42;;
54157;SDS011;40065;49.894;10.358;2023-04-25T09:22:46;3.20;;;1.60;;
54157;SDS011;40065;49.894;10.358;2023-04-25T09:27:49;2.33;;;1.23;;
54157;SDS011;40065;49.894;10.358;2023-04-25T09:33:03;3.70;;;1.45;;
54157;SDS011;40065;49.894;10.358;2023-04-25T09:38:13;2.40;;;1.20;;
54157;SDS011;40065;49.894;10.358;2023-04-25T09:43:45;2.20;;;1.10;;
54157;SDS011;40065;49.894;10.358;2023-04-25T09:48:49;1.98;;;0.80;;
54157;SDS011;40065;49.894;10.358;2023-04-25T09:53:58;3.67;;;1.05;;
54157;SDS011;40065;49.894;10.358;2023-04-25T09:59:22;1.95;;;0.90;;
54157;SDS011;40065;49.894;10.358;2023-04-25T10:04:25;2.42;;;0.95;;
54157;SDS011;40065;49.894;10.358;2023-04-25T10:09:36;2.63;;;1.17;;
54157;SDS011;40065;49.894;10.358;2023-04-25T10:14:40;2.33;;;1.13;;
54157;SDS011;40065;49.894;10.358;2023-04-25T10:19:43;1.48;;;1.00;;
54157;SDS011;40065;49.894;10.358;2023-04-25T10:24:44;3.28;;;1.25;;
54157;SDS011;40065;49.894;10.358;2023-04-25T10:30:00;1.48;;;1.00;;
54157;SDS011;40065;49.894;10.358;2023-04-25T10:35:14;2.42;;;1.25;;
54157;SDS011;40065;49.894;10.358;2023-04-25T10:40:21;2.63;;;1.30;;
54157;SDS011;40065;49.894;10.358;2023-04-25T10:45:23;2.40;;;1.20;;
54157;SDS011;40065;49.894;10.358;2023-04-25T10:50:36;2.47;;;1.20;;
54157;SDS011;40065;49.894;10.358;2023-04-25T10:55:49;3.17;;;1.33;;
54157;SDS011;40065;49.894;10.358;2023-04-25T11:00:51;3.15;;;1.40;;
54157;SDS011;40065;49.894;10.358;2023-04-25T11:05:58;3.55;;;1.30;;
54157;SDS011;40065;49.894;10.358;2023-04-25T11:11:01;3.53;;;1.60;;
54157;SDS011;40065;49.894;10.358;2023-04-25T11:16:06;3.88;;;1.55;;
54157;SDS011;40065;49.894;10.358;2023-04-25T11:21:13;3.47;;;1.50;;
54157;SDS011;40065;49.894;10.358;2023-04-25T11:26:15;2.97;;;1.70;;
54157;SDS011;40065;49.894;10.358;2023-04-25T11:31:20;3.38;;;1.73;;
54157;SDS011;40065;49.894;10.358;2023-04-25T11:36:26;4.15;;;1.92;;
54157;SDS011;40065;49.894;10.358;2023-04-25T11:41:28;5.45;;;2.05;;
54157;SDS011;40065;49.894;10.358;2023-04-25T11:46:29;4.55;;;1.92;;
54157;SDS011;40065;49.894;10.358;2023-04-25T11:51:37;3.38;;;1.88;;
54157;SDS011;40065;49.894;10.358;2023-04-25T11:56:43;4.25;;;2.05;;
54157;SDS011;40065;49.894;10.358;2023-04-25T12:01:49;3.05;;;1.90;;
54157;SDS011;40065;49.894;10.358;2023-04-25T12:06:52;3.70;;;1.95;;
54157;SDS011;40065;49.894;10.358;2023-04-25T12:11:56;5.72;;;2.30;;
54157;SDS011;40065;49.894;10.358;2023-04-25T12:17:00;3.25;;;1.92;;
54157;SDS011;40065;49.894;10.358;2023-04-25T12:22:10;3.50;;;1.90;;
54157;SDS011;40065;49.894;10.358;2023-04-25T12:27:25;4.57;;;2.13;;
54157;SDS011;40065;49.894;10.358;2023-04-25T12:32:27;4.53;;;2.03;;
54157;SDS011;40065;49.894;10.358;2023-04-25T12:37:29;2.75;;;1.55;;
54157;SDS011;40065;49.894;10.358;2023-04-25T12:42:32;4.28;;;1.80;;
54157;SDS011;40065;49.894;10.358;2023-04-25T12:47:33;5.30;;;1.40;;
54157;SDS011;40065;49.894;10.358;2023-04-25T12:52:36;3.60;;;1.88;;
54157;SDS011;40065;49.894;10.358;2023-04-25T12:57:38;3.80;;;1.52;;
54157;SDS011;40065;49.894;10.358;2023-04-25T13:02:40;3.60;;;1.70;;
54157;SDS011;40065;49.894;10.358;2023-04-25T13:07:43;2.63;;;1.80;;
54157;SDS011;40065;49.894;10.358;2023-04-25T13:12:45;2.50;;;1.70;;
54157;SDS011;40065;49.894;10.358;2023-04-25T13:17:47;3.70;;;1.88;;
54157;SDS011;40065;49.894;10.358;2023-04-25T13:22:48;3.42;;;1.55;;
54157;SDS011;40065;49.894;10.358;2023-04-25T13:27:51;3.63;;;2.10;;
54157;SDS011;40065;49.894;10.358;2023-04-25T13:32:53;2.67;;;1.58;;
54157;SDS011;40065;49.894;10.358;2023-04-25T13:37:58;4.90;;;2.35;;
54157;SDS011;40065;49.894;10.358;2023-04-25T13:42:59;3.03;;;1.77;;
54157;SDS011;40065;49.894;10.358;2023-04-25T13:48:02;4.93;;;2.00;;
54157;SDS011;40065;49.894;10.358;2023-04-25T13:53:04;3.08;;;1.77;;
54157;SDS011;40065;49.894;10.358;2023-04-25T13:58:06;4.55;;;1.92;;
54157;SDS011;40065;49.894;10.358;2023-04-25T14:03:09;5.43;;;1.88;;
54157;SDS011;40065;49.894;10.358;2023-04-25T14:08:11;3.55;;;1.50;;
54157;SDS011;40065;49.894;10.358;2023-04-25T14:13:13;2.63;;;1.42;;
54157;SDS011;40065;49.894;10.358;2023-04-25T14:18:15;3.67;;;1.77;;
54157;SDS011;40065;49.894;10.358;2023-04-25T14:23:17;2.90;;;1.40;;
54157;SDS011;40065;49.894;10.358;2023-04-25T14:28:19;3.28;;;1.23;;
54157;SDS011;40065;49.894;10.358;2023-04-25T14:33:21;4.13;;;1.58;;
54157;SDS011;40065;49.894;10.358;2023-04-25T14:38:23;5.75;;;1.63;;
54157;SDS011;40065;49.894;10.358;2023-04-25T14:43:26;4.70;;;1.60;;
54157;SDS011;40065;49.894;10.358;2023-04-25T14:48:28;3.95;;;1.95;;
54157;SDS011;40065;49.894;10.358;2023-04-25T14:53:31;4.97;;;1.98;;
54157;SDS011;40065;49.894;10.358;2023-04-25T14:58:33;2.10;;;1.15;;
54157;SDS011;40065;49.894;10.358;2023-04-25T15:03:34;4.18;;;1.38;;
54157;SDS011;40065;49.894;10.358;2023-04-25T15:08:37;3.33;;;1.30;;
54157;SDS011;40065;49.894;10.358;2023-04-25T15:13:39;3.90;;;1.80;;
54157;SDS011;40065;49.894;10.358;2023-04-25T15:18:41;6.30;;;1.70;;
54157;SDS011;40065;49.894;10.358;2023-04-25T15:23:43;3.83;;;1.63;;
54157;SDS011;40065;49.894;10.358;2023-04-25T15:28:44;4.45;;;1.80;;
54157;SDS011;40065;49.894;10.358;2023-04-25T15:33:46;4.70;;;1.63;;
54157;SDS011;40065;49.894;10.358;2023-04-25T15:38:48;5.82;;;1.90;;
54157;SDS011;40065;49.894;10.358;2023-04-25T15:43:51;6.32;;;2.10;;
54157;SDS011;40065;49.894;10.358;2023-04-25T15:48:54;4.22;;;1.73;;
54157;SDS011;40065;49.894;10.358;2023-04-25T15:53:57;4.47;;;1.77;;
54157;SDS011;40065;49.894;10.358;2023-04-25T15:58:58;5.25;;;1.75;;
54157;SDS011;40065;49.894;10.358;2023-04-25T16:04:00;4.45;;;1.77;;
54157;SDS011;40065;49.894;10.358;2023-04-25T16:09:03;5.03;;;1.67;;
54157;SDS011;40065;49.894;10.358;2023-04-25T16:14:05;5.68;;;1.70;;
54157;SDS011;40065;49.894;10.358;2023-04-25T16:19:09;4.37;;;1.60;;
54157;SDS011;40065;49.894;10.358;2023-04-25T16:24:11;5.25;;;1.77;;
54157;SDS011;40065;49.894;10.358;2023-04-25T16:29:13;7.53;;;2.17;;
54157;SDS011;40065;49.894;10.358;2023-04-25T16:34:17;5.82;;;2.17;;
54157;SDS011;40065;49.894;10.358;2023-04-25T16:39:18;3.78;;;1.67;;
54157;SDS011;40065;49.894;10.358;2023-04-25T16:44:22;6.07;;;1.90;;
54157;SDS011;40065;49.894;10.358;2023-04-25T16:49:23;8.65;;;2.20;;
54157;SDS011;40065;49.894;10.358;2023-04-25T16:54:26;5.55;;;2.25;;
54157;SDS011;40065;49.894;10.358;2023-04-25T16:59:28;6.38;;;2.50;;
54157;SDS011;40065;49.894;10.358;2023-04-25T17:04:30;5.07;;;1.67;;
54157;SDS011;40065;49.894;10.358;2023-04-25T17:09:32;6.38;;;2.60;;
54157;SDS011;40065;49.894;10.358;2023-04-25T17:14:34;6.10;;;1.90;;
54157;SDS011;40065;49.894;10.358;2023-04-25T17:19:37;9.15;;;1.95;;
54157;SDS011;40065;49.894;10.358;2023-04-25T17:24:39;5.75;;;2.13;;
54157;SDS011;40065;49.894;10.358;2023-04-25T17:29:41;5.43;;;1.77;;
54157;SDS011;40065;49.894;10.358;2023-04-25T17:34:43;9.38;;;1.60;;
54157;SDS011;40065;49.894;10.358;2023-04-25T17:39:46;6.75;;;2.08;;
54157;SDS011;40065;49.894;10.358;2023-04-25T17:44:48;8.05;;;1.98;;
54157;SDS011;40065;49.894;10.358;2023-04-25T17:49:50;4.72;;;2.65;;
54157;SDS011;40065;49.894;10.358;2023-04-25T17:54:52;6.70;;;2.00;;
54157;SDS011;40065;49.894;10.358;2023-04-25T17:59:54;6.97;;;2.30;;
54157;SDS011;40065;49.894;10.358;2023-04-25T18:04:58;6.82;;;2.75;;
54157;SDS011;40065;49.894;10.358;2023-04-25T18:10:00;4.55;;;2.08;;
54157;SDS011;40065;49.894;10.358;2023-04-25T18:15:02;5.38;;;1.70;;
54157;SDS011;40065;49.894;10.358;2023-04-25T18:20:11;7.03;;;2.95;;
54157;SDS011;40065;49.894;10.358;2023-04-25T18:25:16;8.25;;;2.05;;
54157;SDS011;40065;49.894;10.358;2023-04-25T18:30:18;6.00;;;2.33;;
54157;SDS011;40065;49.894;10.358;2023-04-25T18:35:20;4.80;;;2.35;;
54157;SDS011;40065;49.894;10.358;2023-04-25T18:40:22;4.75;;;1.70;;
54157;SDS011;40065;49.894;10.358;2023-04-25T18:45:24;6.20;;;2.13;;
54157;SDS011;40065;49.894;10.358;2023-04-25T18:50:26;6.43;;;2.10;;
54157;SDS011;40065;49.894;10.358;2023-04-25T18:55:28;5.80;;;1.88;;
54157;SDS011;40065;49.894;10.358;2023-04-25T19:00:30;5.85;;;2.10;;
54157;SDS011;40065;49.894;10.358;2023-04-25T19:05:32;4.63;;;1.65;;
54157;SDS011;40065;49.894;10.358;2023-04-25T19:10:34;5.85;;;2.50;;
54157;SDS011;40065;49.894;10.358;2023-04-25T19:15:37;4.85;;;1.50;;
54157;SDS011;40065;49.894;10.358;2023-04-25T19:20:40;4.82;;;1.65;;
54157;SDS011;40065;49.894;10.358;2023-04-25T19:25:42;6.90;;;2.22;;
54157;SDS011;40065;49.894;10.358;2023-04-25T19:30:44;11.45;;;2.28;;
54157;SDS011;40065;49.894;10.358;2023-04-25T19:35:46;7.90;;;2.47;;
54157;SDS011;40065;49.894;10.358;2023-04-25T19:40:48;8.60;;;3.50;;
54157;SDS011;40065;49.894;10.358;2023-04-25T19:45:50;8.80;;;3.53;;
54157;SDS011;40065;49.894;10.358;2023-04-25T19:50:52;7.60;;;3.15;;
54157;SDS011;40065;49.894;10.358;2023-04-25T19:55:54;11.90;;;4.93;;
54157;SDS011;40065;49.894;10.358;2023-04-25T20:00:56;11.27;;;4.45;;
54157;SDS011;40065;49.894;10.358;2023-04-25T20:05:57;8.68;;;2.70;;
54157;SDS011;40065;49.894;10.358;2023-04-25T20:11:00;6.72;;;2.97;;
54157;SDS011;40065;49.894;10.358;2023-04-25T20:16:02;4.75;;;1.88;;
54157;SDS011;40065;49.894;10.358;2023-04-25T20:21:05;5.88;;;1.63;;
54157;SDS011;40065;49.894;10.358;2023-04-25T20:26:08;5.73;;;2.47;;
54157;SDS011;40065;49.894;10.358;2023-04-25T20:31:12;5.18;;;1.95;;
54157;SDS011;40065;49.894;10.358;2023-04-25T20:36:13;6.60;;;2.85;;
54157;SDS011;40065;49.894;10.358;2023-04-25T20:41:16;4.78;;;2.67;;
54157;SDS011;40065;49.894;10.358;2023-04-25T20:46:17;11.65;;;2.80;;
54157;SDS011;40065;49.894;10.358;2023-04-25T20:51:20;6.80;;;2.97;;
54157;SDS011;40065;49.894;10.358;2023-04-25T20:56:22;7.90;;;3.30;;
54157;SDS011;40065;49.894;10.358;2023-04-25T21:01:24;5.22;;;2.10;;
54157;SDS011;40065;49.894;10.358;2023-04-25T21:06:26;3.80;;;2.00;;
54157;SDS011;40065;49.894;10.358;2023-04-25T21:11:28;4.18;;;2.10;;
54157;SDS011;40065;49.894;10.358;2023-04-25T21:16:30;3.90;;;1.88;;
54157;SDS011;40065;49.894;10.358;2023-04-25T21:21:35;3.63;;;1.70;;
54157;SDS011;40065;49.894;10.358;2023-04-25T21:26:37;2.65;;;1.80;;
54157;SDS011;40065;49.894;10.358;2023-04-25T21:31:39;3.78;;;1.67;;
54157;SDS011;40065;49.894;10.358;2023-04-25T21:36:42;4.97;;;1.90;;
54157;SDS011;40065;49.894;10.358;2023-04-25T21:41:44;3.70;;;1.98;;
54157;SDS011;40065;49.894;10.358;2023-04-25T21:46:46;2.47;;;1.63;;
54157;SDS011;40065;49.894;10.358;2023-04-25T21:51:48;5.82;;;2.35;;
54157;SDS011;40065;49.894;10.358;2023-04-25T21:56:50;5.10;;;1.75;;
54157;SDS011;40065;49.894;10.358;2023-04-25T22:01:51;3.92;;;2.22;;
54157;SDS011;40065;49.894;10.358;2023-04-25T22:06:53;3.72;;;2.00;;
54157;SDS011;40065;49.894;10.358;2023-04-25T22:11:55;5.05;;;2.50;;
54157;SDS011;40065;49.894;10.358;2023-04-25T22:16:58;3.78;;;1.95;;
54157;SDS011;40065;49.894;10.358;2023-04-25T22:22:01;3.80;;;2.00;;
54157;SDS011;40065;49.894;10.358;2023-04-25T22:27:03;6.13;;;2.42;;
54157;SDS011;40065;49.894;10.358;2023-04-25T22:32:06;6.13;;;3.28;;
54157;SDS011;40065;49.894;10.358;2023-04-25T22:37:09;6.60;;;3.30;;
54157;SDS011;40065;49.894;10.358;2023-04-25T22:42:11;7.30;;;3.63;;
54157;SDS011;40065;49.894;10.358;2023-04-25T22:47:13;5.05;;;3.20;;
54157;SDS011;40065;49.894;10.358;2023-04-25T22:52:15;6.00;;;2.92;;
54157;SDS011;40065;49.894;10.358;2023-04-25T22:57:17;4.68;;;2.40;;
54157;SDS011;40065;49.894;10.358;2023-04-25T23:02:19;5.57;;;2.50;;
54157;SDS011;40065;49.894;10.358;2023-04-25T23:07:22;5.15;;;1.98;;
54157;SDS011;40065;49.894;10.358;2023-04-25T23:12:24;7.00;;;2.78;;
54157;SDS011;40065;49.894;10.358;2023-04-25T23:17:26;6.15;;;3.03;;
54157;SDS011;40065;49.894;10.358;2023-04-25T23:22:28;5.32;;;2.90;;
54157;SDS011;40065;49.894;10.358;2023-04-25T23:27:30;4.82;;;2.72;;
54157;SDS011;40065;49.894;10.358;2023-04-25T23:32:31;5.88;;;2.90;;
54157;SDS011;40065;49.894;10.358;2023-04-25T23:37:34;4.85;;;2.60;;
54157;SDS011;40065;49.894;10.358;2023-04-25T23:42:38;7.57;;;2.73;;
54157;SDS011;40065;49.894;10.358;2023-04-25T23:47:41;3.90;;;2.23;;
54157;SDS011;40065;49.894;10.358;2023-04-25T23:52:43;4.30;;;2.80;;
54157;SDS011;40065;49.894;10.358;2023-04-25T23:57:45;6.78;;;2.55;;
